createdAt,value
2019-03-15T00:00:48.337Z,10.85
2019-03-15T00:04:50.232Z,12.63
2019-03-15T00:08:52.133Z,12.45
2019-03-15T00:12:54.047Z,14.27
2019-03-15T00:16:55.956Z,9.68
2019-03-15T00:20:57.854Z,7.20
2019-03-15T00:24:59.754Z,16.33
2019-03-15T00:29:01.816Z,8.87
2019-03-15T00:33:03.696Z,9.37
2019-03-15T00:37:05.606Z,10.50
2019-03-15T00:41:07.859Z,8.87
2019-03-15T00:45:11.564Z,8.20
2019-03-15T00:49:13.561Z,9.13
2019-03-15T00:53:15.451Z,7.63
2019-03-15T00:57:17.355Z,8.43
2019-03-15T01:01:20.494Z,10.27
2019-03-15T01:05:22.488Z,8.47
2019-03-15T01:09:24.390Z,8.83
2019-03-15T01:13:26.319Z,8.33
2019-03-15T01:17:28.208Z,7.43
2019-03-15T01:21:30.108Z,6.97
2019-03-15T01:25:31.989Z,6.53
2019-03-15T01:29:34.907Z,12.90
2019-03-15T01:33:36.800Z,6.23
2019-03-15T01:37:38.695Z,7.67
2019-03-15T01:41:40.605Z,6.58
2019-03-15T01:45:43.457Z,8.35
2019-03-15T01:49:45.499Z,10.07
2019-03-15T01:53:48.421Z,10.60
2019-03-15T01:57:50.438Z,5.85
2019-03-15T02:01:52.352Z,10.97
2019-03-15T02:05:54.252Z,7.13
2019-03-15T02:09:56.201Z,9.90
2019-03-15T02:13:58.085Z,9.10
2019-03-15T02:17:59.997Z,10.60
2019-03-15T02:22:01.904Z,8.38
2019-03-15T02:26:03.913Z,10.27
2019-03-15T02:30:10.317Z,10.37
2019-03-15T02:34:12.233Z,9.33
2019-03-15T02:38:14.111Z,8.07
2019-03-15T02:42:16.005Z,10.83
2019-03-15T02:46:17.908Z,10.53
2019-03-15T02:50:19.811Z,8.60
2019-03-15T02:54:21.710Z,7.53
2019-03-15T02:58:23.615Z,13.57
2019-03-15T03:02:25.510Z,9.23
2019-03-15T03:06:28.085Z,8.87
2019-03-15T03:10:30.379Z,8.83
2019-03-15T03:14:32.278Z,9.70
2019-03-15T03:18:34.976Z,11.50
2019-03-15T03:22:36.881Z,12.00
2019-03-15T03:26:40.117Z,12.17
2019-03-15T03:30:42.649Z,14.03
2019-03-15T03:34:45.906Z,11.50
2019-03-15T03:38:47.817Z,13.00
2019-03-15T03:42:49.740Z,15.23
2019-03-15T03:46:52.481Z,11.07
2019-03-15T03:50:54.638Z,10.03
2019-03-15T03:54:57.647Z,14.07
2019-03-15T03:58:59.606Z,15.80
2019-03-15T04:03:01.682Z,12.70
2019-03-15T04:07:03.725Z,13.37
2019-03-15T04:11:05.638Z,19.87
2019-03-15T04:15:10.513Z,11.63
2019-03-15T04:19:12.423Z,11.60
2019-03-15T04:23:14.342Z,11.50
2019-03-15T04:27:16.245Z,14.00
2019-03-15T04:31:18.169Z,15.33
2019-03-15T04:35:20.065Z,13.20
2019-03-15T04:39:22.188Z,16.90
2019-03-15T04:43:24.084Z,17.67
2019-03-15T04:47:26.230Z,9.93
2019-03-15T04:51:28.136Z,14.07
2019-03-15T04:55:30.333Z,16.97
2019-03-15T04:59:32.809Z,16.73
2019-03-15T05:03:35.033Z,17.60
2019-03-15T05:07:37.095Z,18.97
2019-03-15T05:11:38.919Z,14.37
2019-03-15T05:15:40.847Z,20.27
2019-03-15T05:19:42.725Z,14.13
2019-03-15T05:24:03.707Z,12.53
2019-03-15T05:28:05.788Z,10.33
2019-03-15T05:32:07.703Z,14.80
2019-03-15T05:36:09.588Z,12.37
2019-03-15T05:40:11.660Z,14.90
2019-03-15T05:44:13.567Z,14.03
2019-03-15T05:48:15.467Z,14.10
2019-03-15T05:52:17.536Z,12.70
2019-03-15T05:56:19.431Z,19.37
2019-03-15T06:00:21.343Z,13.60
2019-03-15T06:04:23.256Z,17.70
2019-03-15T06:08:27.567Z,13.13
2019-03-15T06:12:28.769Z,12.40
2019-03-15T06:16:30.664Z,18.10
2019-03-15T06:20:32.586Z,12.00
2019-03-15T06:24:35.142Z,14.15
2019-03-15T06:28:37.122Z,14.03
2019-03-15T06:32:39.171Z,16.20
2019-03-15T06:36:41.075Z,14.03
2019-03-15T06:40:42.986Z,17.83
2019-03-15T06:44:57.040Z,23.18
2019-03-15T06:48:48.548Z,16.70
2019-03-15T06:52:50.461Z,16.00
2019-03-15T06:56:52.352Z,14.83
2019-03-15T07:00:54.946Z,14.73
2019-03-15T07:04:58.009Z,20.53
2019-03-15T07:08:59.920Z,21.67
2019-03-15T07:13:01.832Z,17.10
2019-03-15T07:17:03.730Z,13.43
2019-03-15T07:21:05.637Z,12.53
2019-03-15T07:25:10.020Z,13.43
2019-03-15T07:29:13.542Z,14.47
2019-03-15T07:33:15.457Z,12.60
2019-03-15T07:37:17.345Z,19.17
2019-03-15T07:41:19.251Z,16.73
2019-03-15T07:45:21.193Z,13.32
2019-03-15T07:49:23.084Z,18.33
2019-03-15T07:53:25.008Z,11.53
2019-03-15T07:57:26.915Z,13.27
2019-03-15T08:01:28.827Z,13.80
2019-03-15T08:05:31.825Z,13.70
2019-03-15T08:09:33.742Z,15.57
2019-03-15T08:13:35.656Z,12.03
2019-03-15T08:17:37.593Z,9.90
2019-03-15T08:21:39.492Z,10.67
2019-03-15T08:25:42.477Z,13.08
2019-03-15T08:29:44.373Z,15.90
2019-03-15T08:33:46.289Z,13.62
2019-03-15T08:37:48.385Z,12.45
2019-03-15T08:41:50.287Z,14.20
2019-03-15T08:45:52.346Z,12.47
2019-03-15T08:49:54.319Z,10.03
2019-03-15T08:53:56.240Z,11.10
2019-03-15T08:57:58.137Z,11.90
2019-03-15T09:02:00.037Z,8.37
2019-03-15T09:06:01.954Z,9.73
2019-03-15T09:10:05.198Z,9.47
2019-03-15T09:14:07.206Z,7.73
2019-03-15T09:18:09.145Z,7.33
2019-03-15T09:22:11.127Z,12.40
2019-03-15T09:26:13.071Z,12.87
2019-03-15T09:30:23.736Z,8.03
2019-03-15T09:34:22.520Z,4.53
2019-03-15T09:38:24.400Z,9.83
2019-03-15T09:42:26.320Z,5.45
2019-03-15T09:46:28.220Z,6.93
2019-03-15T09:50:40.069Z,7.60
2019-03-15T09:54:33.770Z,4.43
2019-03-15T09:58:35.760Z,4.13
2019-03-15T10:02:37.666Z,6.07
2019-03-15T10:06:39.569Z,6.17
2019-03-15T10:14:49.582Z,3.60
2019-03-15T10:18:51.492Z,2.70
2019-03-15T10:23:05.488Z,3.25
2019-03-15T10:26:57.020Z,2.07
2019-03-15T10:30:58.930Z,2.93
2019-03-15T10:35:01.670Z,1.63
2019-03-15T10:39:03.866Z,1.83
2019-03-15T10:43:05.746Z,2.00
2019-03-15T10:47:07.699Z,2.73
2019-03-15T10:51:09.646Z,0.50
2019-03-15T10:55:11.792Z,0.40
2019-03-15T10:59:13.693Z,0.40
2019-03-15T11:03:15.592Z,0.70
2019-03-15T11:07:17.492Z,0.75
2019-03-15T11:11:19.387Z,0.83
2019-03-15T11:15:21.336Z,0.30
2019-03-15T11:19:23.238Z,0.50
2019-03-15T11:23:25.130Z,0.60
2019-03-15T11:27:27.034Z,2.57
2019-03-15T11:31:28.937Z,1.93
2019-03-15T11:35:49.249Z,0.63
2019-03-15T11:40:09.376Z,0.90
2019-03-15T11:44:11.605Z,1.25
2019-03-15T11:48:13.491Z,1.83
2019-03-15T11:52:15.393Z,2.53
2019-03-15T11:56:26.887Z,3.73
2019-03-15T12:00:21.528Z,0.83
2019-03-15T12:04:23.428Z,1.00
2019-03-15T12:08:25.416Z,1.00
2019-03-15T12:12:27.320Z,2.33
2019-03-15T12:16:29.244Z,2.23
2019-03-15T12:20:31.143Z,1.30
2019-03-15T12:24:33.070Z,1.03
2019-03-15T12:28:35.451Z,1.40
2019-03-15T12:32:37.448Z,0.50
2019-03-15T12:36:39.339Z,0.50
2019-03-15T12:40:41.251Z,0.95
2019-03-15T12:44:43.140Z,1.07
2019-03-15T12:48:45.038Z,0.67
2019-03-15T12:52:48.532Z,0.60
2019-03-15T12:56:53.992Z,0.80
2019-03-15T13:00:54.221Z,1.83
2019-03-15T13:04:56.112Z,0.60
2019-03-15T13:08:58.013Z,0.67
2019-03-15T13:12:59.914Z,1.13
2019-03-15T13:17:01.834Z,1.20
2019-03-15T13:21:03.737Z,1.37
2019-03-15T13:25:09.405Z,0.97
2019-03-15T13:29:11.304Z,1.20
2019-03-15T13:33:20.442Z,1.30
2019-03-15T13:37:16.808Z,1.40
2019-03-15T13:41:18.705Z,1.57
2019-03-15T13:45:20.606Z,1.53
2019-03-15T13:49:22.519Z,0.90
2019-03-15T13:53:24.407Z,2.27
2019-03-15T13:57:26.303Z,1.47
2019-03-15T14:01:28.211Z,3.40
2019-03-15T14:05:30.099Z,1.23
2019-03-15T14:09:32.008Z,0.93
2019-03-15T14:13:33.900Z,1.30
2019-03-15T14:17:35.876Z,2.00
2019-03-15T14:21:37.786Z,1.00
2019-03-15T14:25:39.682Z,1.20
2019-03-15T14:29:41.652Z,1.62
2019-03-15T14:33:43.617Z,1.00
2019-03-15T14:37:45.767Z,1.30
2019-03-15T14:41:47.851Z,1.10
2019-03-15T14:45:49.820Z,1.00
2019-03-15T14:49:51.825Z,1.40
2019-03-15T14:53:53.720Z,1.27
2019-03-15T14:58:00.015Z,1.53
2019-03-15T15:02:00.379Z,1.30
2019-03-15T15:06:02.274Z,1.50
2019-03-15T15:10:05.925Z,1.67
2019-03-15T15:14:15.848Z,1.00
2019-03-15T15:18:17.813Z,1.10
2019-03-15T15:22:19.813Z,0.93
2019-03-15T15:26:21.696Z,1.17
2019-03-15T15:30:23.599Z,1.17
2019-03-15T15:34:25.505Z,1.90
2019-03-15T15:38:27.432Z,0.80
2019-03-15T15:42:29.345Z,1.50
2019-03-15T15:46:31.259Z,1.47
2019-03-15T15:50:33.160Z,2.47
2019-03-15T15:54:35.737Z,1.15
2019-03-15T15:58:37.646Z,0.80
2019-03-15T16:02:39.552Z,0.78
2019-03-15T16:06:41.906Z,1.73
2019-03-15T16:10:43.848Z,1.00
2019-03-15T16:14:52.437Z,1.23
2019-03-15T16:18:54.551Z,0.83
2019-03-15T16:22:56.570Z,1.10
2019-03-15T16:26:58.502Z,0.88
2019-03-15T16:31:00.448Z,0.83
2019-03-15T16:35:02.367Z,4.00
2019-03-15T16:39:05.825Z,1.43
2019-03-15T16:43:07.748Z,1.30
2019-03-15T16:47:09.713Z,1.63
2019-03-15T16:51:19.506Z,1.17
2019-03-15T16:55:15.891Z,1.40
2019-03-15T16:59:17.990Z,2.13
2019-03-15T17:03:19.917Z,1.47
2019-03-15T17:07:21.828Z,1.40
2019-03-15T17:11:23.733Z,2.03
2019-03-15T17:15:30.118Z,1.70
2019-03-15T17:19:32.147Z,2.30
2019-03-15T17:23:34.073Z,1.33
2019-03-15T17:27:35.965Z,1.60
2019-03-15T17:31:37.881Z,1.43
2019-03-15T17:35:39.778Z,2.15
2019-03-15T17:39:44.044Z,2.73
2019-03-15T17:43:45.274Z,1.17
2019-03-15T17:47:47.580Z,2.15
2019-03-15T17:51:49.481Z,1.50
2019-03-15T17:55:51.369Z,1.40
2019-03-15T18:00:19.497Z,1.82
2019-03-15T18:04:21.399Z,1.40
2019-03-15T18:08:23.318Z,1.80
2019-03-15T18:12:25.609Z,1.70
2019-03-15T18:16:27.534Z,1.20
2019-03-15T18:20:30.392Z,1.53
2019-03-15T18:24:32.545Z,1.57
2019-03-15T18:28:35.732Z,1.33
2019-03-15T18:32:37.629Z,1.30
2019-03-15T18:36:42.807Z,1.40
2019-03-15T18:40:43.394Z,2.15
2019-03-15T18:44:46.198Z,1.25
2019-03-15T18:48:48.189Z,1.50
2019-03-15T18:52:50.183Z,1.27
2019-03-15T18:56:52.127Z,1.20
2019-03-15T19:00:54.045Z,1.90
2019-03-15T19:04:55.961Z,1.80
2019-03-15T19:08:58.030Z,1.40
2019-03-15T19:12:59.903Z,1.50
2019-03-15T19:17:01.809Z,1.43
2019-03-15T19:21:03.804Z,1.60
2019-03-15T19:25:08.225Z,1.70
2019-03-15T19:29:10.123Z,1.50
2019-03-15T19:33:12.989Z,1.60
2019-03-15T19:37:14.933Z,1.43
2019-03-15T19:41:16.835Z,1.50
2019-03-15T19:45:18.913Z,2.58
2019-03-15T19:49:20.861Z,1.67
2019-03-15T19:53:22.743Z,2.00
2019-03-15T19:57:24.641Z,2.20
2019-03-15T20:01:28.994Z,2.10
2019-03-15T20:05:30.187Z,1.77
2019-03-15T20:09:32.097Z,1.90
2019-03-15T20:13:34.035Z,1.93
2019-03-15T20:17:35.953Z,2.43
2019-03-15T20:21:37.848Z,1.90
2019-03-15T20:25:39.745Z,1.53
2019-03-15T20:29:42.622Z,1.55
2019-03-15T20:33:44.525Z,1.70
2019-03-15T20:37:46.429Z,1.22
2019-03-15T20:41:48.407Z,1.30
2019-03-15T20:45:50.380Z,1.23
2019-03-15T20:49:52.292Z,0.98
2019-03-15T20:53:54.189Z,2.17
2019-03-15T20:57:56.157Z,1.03
2019-03-15T21:01:58.029Z,1.20
2019-03-15T21:06:00.000Z,0.70
2019-03-15T21:10:01.915Z,1.57
2019-03-15T21:14:03.921Z,0.60
2019-03-15T21:18:05.808Z,0.60
2019-03-15T21:22:07.775Z,0.60
2019-03-15T21:26:09.675Z,0.60
2019-03-15T21:30:27.523Z,0.60
2019-03-15T21:34:29.404Z,0.80
2019-03-15T21:38:31.663Z,0.60
2019-03-15T21:42:33.626Z,0.70
2019-03-15T21:46:35.782Z,0.60
2019-03-15T21:50:37.675Z,2.53
2019-03-15T21:54:39.611Z,0.50
2019-03-15T21:58:41.548Z,0.50
2019-03-15T22:02:43.481Z,0.72
2019-03-15T22:06:45.374Z,1.20
2019-03-15T22:10:47.273Z,0.70
2019-03-15T22:14:49.171Z,0.80
2019-03-15T22:18:51.080Z,1.47
2019-03-15T22:22:53.988Z,0.93
2019-03-15T22:26:55.895Z,0.60
2019-03-15T22:30:57.797Z,0.90
2019-03-15T22:34:59.689Z,2.40
2019-03-15T22:39:01.670Z,0.80
2019-03-15T22:43:04.949Z,2.25
2019-03-15T22:47:06.865Z,1.17
2019-03-15T22:51:08.757Z,0.80
2019-03-15T22:55:11.865Z,0.77
2019-03-15T22:59:13.767Z,0.60
2019-03-15T23:03:15.690Z,0.77
2019-03-15T23:07:17.622Z,2.10
2019-03-15T23:11:19.520Z,0.57
2019-03-15T23:15:21.429Z,2.10
2019-03-15T23:19:23.657Z,0.50
2019-03-15T23:23:25.550Z,0.50
2019-03-15T23:27:28.522Z,0.67
2019-03-15T23:31:42.632Z,0.50
2019-03-15T23:35:34.015Z,0.87
2019-03-15T23:39:35.955Z,0.70
2019-03-15T23:43:37.853Z,1.20
2019-03-15T23:47:39.826Z,0.80
2019-03-15T23:51:41.725Z,3.83
2019-03-15T23:55:43.619Z,1.45
2019-03-15T23:59:45.546Z,1.90
